Glenrock, WY (82637)

8:51 AM MDT on September 01, 2014 (GMT -0600)
WYDOT | Change Station
CLOSE
Current Station
Personal Weather Station
Location: Glenrock, WY
Elevation: 5064 ft
Nearby Weather Stations
Active Advisory: Fire Weather Watch

Elev 5064 ft 42.84 °N, 105.86 °W | Updated 1 day ago

Thunderstorm
Thunderstorm
64 °F
Feels Like 64 °F
N
13
Wind Variable Wind from WNW
Gusts 17 mph

Today
High -- | Low -- °F
--% Chance of Precip.
Yesterday
High -- | Low -- °F
Precip. -- in
6:27 AM 7:37 PM
Waxing Crescent, 41% visible
Pressure 29.94 in
Visibility 10.0 miles
Clouds Clear
Dew Point 41 °F
Humidity 41%
Rainfall -999.00 in
Snow Depth Not available.
UV 1 out of 12
Pollen 7.60 out of 12
Air Quality Not available.
Flu Activity Not available.
METAR KDGW 011353Z AUTO 00000KT 10SM CLR 10/08 A3003 RMK AO2 SLP139 T01000083

More Conditions Fewer Conditions

Pressure 29.94 in
Visibility 10.0 miles
Clouds Clear
Dew Point 41 °F
Humidity 41%
Rainfall -999.00 in
Snow Depth Not available.
UV 1 out of 12
Pollen 7.60 out of 12
Air Quality Not available.
Flu Activity Not available.
METAR KDGW 011353Z AUTO 00000KT 10SM CLR 10/08 A3003 RMK AO2 SLP139 T01000083

More Conditions Fewer Conditions

10-Day Weather Forecast

Almanac

Astronomy

Sep. 01, 2014 Rise Set
Actual Time 6:27 AM MDT 7:37 PM MDT
Civil Twilight 5:58 AM MDT 8:06 PM MDT
Nautical Twilight 5:23 AM MDT 8:41 PM MDT
Astronomical Twilight 4:47 AM MDT 9:17 PM MDT
Moon 1:25 PM MDT 11:31 PM MDT
Length of Visible Light 14h 07m
Length of Day
13h 09m
Tomorrow will be 2m 47s shorter.
Waxing Crescent, 41% of the Moon is Illuminated
Today
Waxing Crescent
Sep 2
First Quarter
Sep 8
Full
Sep 15
Last Quarter
Sep 24
New

Today's Extremes

State Highs State Lows

Community

WunderPhotos

Upload Photos

1,749,253 photos uploaded!

Nearby

Snow Depth

Station Depth Elevation
Reno Hill 0 in 8500 ft
Casper Mountain 1 in 7850 ft
Sand Lake 1 in 10050 ft
Brooklyn Lake 1 in 10220 ft
South Brush Creek 1 in 8440 ft

Earthquake Activity

City Distance Mag. Time & Date
No recent earthquake activity has been reported nearby.
Minimum magnitude displayed is 2.5.

Coastal Water Temperatures

Place Temperature
No Stations Reporting

Nearby Weather Stations